createdAt,value
2023-07-24T00:03:15.087Z,17.50
2023-07-24T00:07:16.888Z,17.50
2023-07-24T00:11:18.562Z,17.50
2023-07-24T00:15:20.343Z,17.60
2023-07-24T00:19:22.060Z,17.60
2023-07-24T00:23:23.786Z,17.50
2023-07-24T00:27:25.504Z,17.30
2023-07-24T00:31:27.277Z,17.30
2023-07-24T00:35:29.126Z,17.20
2023-07-24T00:39:30.866Z,17.20
2023-07-24T00:43:32.563Z,17.10
2023-07-24T00:47:34.337Z,17.10
2023-07-24T00:51:36.266Z,17.10
2023-07-24T00:55:38.322Z,17.10
2023-07-24T00:59:40.695Z,17.10
2023-07-24T01:03:44.509Z,17.30
2023-07-24T01:07:46.206Z,17.10
2023-07-24T01:12:09.963Z,17.20
2023-07-24T01:16:19.277Z,17.20
2023-07-24T01:20:22.722Z,17.20
2023-07-24T01:24:47.820Z,17.20
2023-07-24T01:28:49.582Z,17.20
2023-07-24T01:32:51.344Z,17.20
2023-07-24T01:36:53.267Z,17.20
2023-07-24T01:40:55.992Z,17.20
2023-07-24T01:44:57.627Z,17.10
2023-07-24T01:48:59.328Z,17.10
2023-07-24T01:53:01.072Z,17.10
2023-07-24T01:57:02.771Z,17.10
2023-07-24T02:01:04.473Z,17.10
2023-07-24T02:05:06.484Z,17.10
2023-07-24T02:09:08.220Z,17.10
2023-07-24T02:13:10.340Z,17.00
2023-07-24T02:17:11.996Z,17.10
2023-07-24T02:21:13.739Z,17.10
2023-07-24T02:25:15.597Z,17.10
2023-07-24T02:29:17.353Z,17.10
2023-07-24T02:33:19.032Z,17.10
2023-07-24T02:37:20.917Z,17.10
2023-07-24T02:41:22.609Z,17.10
2023-07-24T02:45:24.266Z,17.20
2023-07-24T02:49:25.927Z,17.20
2023-07-24T02:53:27.651Z,17.20
2023-07-24T02:57:29.312Z,17.30
2023-07-24T03:01:31.156Z,17.30
2023-07-24T03:05:35.495Z,17.30
2023-07-24T03:09:37.218Z,17.30
2023-07-24T03:13:41.930Z,17.30
2023-07-24T03:17:44.913Z,17.30
2023-07-24T03:21:46.793Z,17.30
2023-07-24T03:25:48.703Z,17.20
2023-07-24T03:29:50.346Z,17.20
2023-07-24T03:33:52.017Z,17.20
2023-07-24T03:37:53.785Z,17.20
2023-07-24T03:41:55.482Z,17.20
2023-07-24T03:45:57.183Z,17.20
2023-07-24T03:49:58.905Z,17.20
2023-07-24T03:54:00.640Z,17.20
2023-07-24T03:58:02.295Z,17.20
2023-07-24T04:02:04.289Z,17.30
2023-07-24T04:06:06.005Z,17.20
2023-07-24T04:10:08.364Z,17.20
2023-07-24T04:14:10.135Z,17.20
2023-07-24T04:18:11.985Z,17.20
2023-07-24T04:22:13.643Z,17.20
2023-07-24T04:26:15.335Z,17.30
2023-07-24T04:30:17.392Z,17.30
2023-07-24T04:34:19.577Z,17.30
2023-07-24T04:38:21.269Z,17.30
2023-07-24T04:42:22.982Z,17.30
2023-07-24T04:46:24.746Z,17.30
2023-07-24T04:50:26.450Z,17.30
2023-07-24T04:54:29.254Z,17.30
2023-07-24T04:58:30.954Z,17.40
2023-07-24T05:02:32.669Z,17.30
2023-07-24T05:06:36.307Z,17.30
2023-07-24T05:10:38.124Z,17.30
2023-07-24T05:14:39.841Z,17.40
2023-07-24T05:18:41.509Z,17.50
2023-07-24T05:22:43.200Z,17.50
2023-07-24T05:26:44.858Z,17.50
2023-07-24T05:30:46.509Z,17.50
2023-07-24T05:34:48.272Z,17.60
2023-07-24T05:38:49.916Z,17.50
2023-07-24T05:42:51.604Z,17.50
2023-07-24T05:46:53.261Z,17.50
2023-07-24T05:50:54.939Z,17.50
2023-07-24T05:54:56.611Z,17.60
2023-07-24T05:58:58.295Z,17.50
2023-07-24T06:03:00.077Z,17.60
2023-07-24T06:07:01.806Z,17.80
2023-07-24T06:11:03.490Z,17.80
2023-07-24T06:15:05.997Z,17.90
2023-07-24T06:19:07.762Z,18.00
2023-07-24T06:23:09.493Z,18.00
2023-07-24T06:27:11.283Z,18.10
2023-07-24T06:31:12.985Z,18.40
2023-07-24T06:35:14.834Z,18.60
2023-07-24T06:39:16.836Z,18.70
2023-07-24T06:43:18.570Z,18.90
2023-07-24T06:47:20.289Z,19.00
2023-07-24T06:51:21.951Z,19.40
2023-07-24T06:55:23.727Z,19.80
2023-07-24T06:59:25.477Z,20.00
2023-07-24T07:03:27.177Z,19.80
2023-07-24T07:07:28.824Z,19.50
2023-07-24T07:11:30.523Z,19.30
2023-07-24T07:15:32.319Z,19.10
2023-07-24T07:19:34.084Z,18.90
2023-07-24T07:23:35.721Z,18.70
2023-07-24T07:27:37.485Z,18.70
2023-07-24T07:31:39.338Z,18.70
2023-07-24T07:35:41.122Z,18.60
2023-07-24T07:39:42.915Z,18.70
2023-07-24T07:43:44.615Z,18.80
2023-07-24T07:47:46.334Z,18.70
2023-07-24T07:51:48.120Z,18.80
2023-07-24T07:55:57.929Z,18.80
2023-07-24T07:59:59.598Z,19.00
2023-07-24T08:04:01.284Z,19.00
2023-07-24T08:08:02.965Z,19.20
2023-07-24T08:12:07.761Z,19.30
2023-07-24T08:16:20.536Z,19.30
2023-07-24T08:20:22.184Z,19.30
2023-07-24T08:24:24.003Z,19.30
2023-07-24T08:28:25.678Z,19.40
2023-07-24T08:32:27.470Z,19.60
2023-07-24T08:36:30.257Z,19.70
2023-07-24T08:40:32.252Z,19.90
2023-07-24T08:44:34.171Z,19.90
2023-07-24T08:48:41.012Z,19.80
2023-07-24T08:52:43.960Z,19.60
2023-07-24T08:56:49.481Z,19.50
2023-07-24T09:00:52.445Z,19.50
2023-07-24T09:04:54.207Z,19.60
2023-07-24T09:08:56.169Z,19.70
2023-07-24T09:12:58.041Z,19.60
2023-07-24T09:17:07.907Z,19.60
2023-07-24T09:21:13.080Z,19.40
2023-07-24T09:25:14.833Z,19.40
2023-07-24T09:29:17.784Z,19.40
2023-07-24T09:33:19.541Z,19.40
2023-07-24T09:37:39.525Z,19.40
2023-07-24T09:41:41.871Z,19.40
2023-07-24T09:45:46.202Z,19.30
2023-07-24T09:49:48.613Z,19.20
2023-07-24T09:53:53.434Z,19.30
2023-07-24T09:57:55.692Z,19.30
2023-07-24T10:01:57.513Z,19.50
2023-07-24T10:05:59.294Z,19.70
2023-07-24T10:10:02.570Z,19.90
2023-07-24T10:14:04.667Z,20.30
2023-07-24T10:18:08.730Z,20.60
2023-07-24T10:22:21.588Z,20.80
2023-07-24T10:26:27.819Z,21.00
2023-07-24T10:30:35.087Z,20.90
2023-07-24T10:34:38.638Z,21.00
2023-07-24T10:38:44.123Z,21.00
2023-07-24T10:42:45.780Z,21.00
2023-07-24T10:46:47.458Z,20.90
2023-07-24T10:50:53.949Z,20.70
2023-07-24T10:54:56.370Z,20.50
2023-07-24T10:59:02.811Z,20.20
2023-07-24T11:03:04.718Z,19.80
2023-07-24T11:07:06.529Z,19.70
2023-07-24T11:11:09.280Z,19.80
2023-07-24T11:15:12.174Z,19.90
2023-07-24T11:19:14.054Z,19.80
2023-07-24T11:23:16.306Z,19.70
2023-07-24T11:27:18.313Z,19.60
2023-07-24T11:31:23.137Z,19.50
2023-07-24T11:35:26.516Z,19.40
2023-07-24T11:39:28.276Z,19.10
2023-07-24T11:43:29.971Z,19.00
2023-07-24T11:47:31.805Z,16.90
2023-07-24T11:51:35.423Z,16.10
2023-07-24T11:55:37.412Z,15.70
2023-07-24T11:59:40.364Z,15.60
2023-07-24T12:03:42.733Z,15.50
2023-07-24T12:07:47.072Z,15.50
2023-07-24T12:11:50.042Z,15.40
2023-07-24T12:15:51.825Z,15.50
2023-07-24T12:19:53.931Z,15.50
2023-07-24T12:23:55.610Z,15.60
2023-07-24T12:27:57.295Z,15.80
2023-07-24T12:31:58.948Z,15.90
2023-07-24T12:36:00.937Z,16.00
2023-07-24T12:40:03.444Z,16.20
2023-07-24T12:44:05.230Z,16.50
2023-07-24T12:48:07.026Z,16.90
2023-07-24T12:52:08.862Z,17.70
2023-07-24T12:56:10.515Z,18.50
2023-07-24T13:00:12.643Z,18.80
2023-07-24T13:04:14.406Z,19.60
2023-07-24T13:08:18.349Z,20.20
2023-07-24T13:12:20.872Z,20.70
2023-07-24T13:16:23.259Z,21.10
2023-07-24T13:20:25.873Z,21.00
2023-07-24T13:24:27.748Z,20.90
2023-07-24T13:28:29.612Z,20.40
2023-07-24T13:32:31.377Z,20.10
2023-07-24T13:36:33.353Z,20.20
2023-07-24T13:40:36.205Z,20.40
2023-07-24T13:44:37.921Z,21.00
2023-07-24T13:48:39.688Z,21.10
2023-07-24T13:52:41.377Z,21.10
2023-07-24T13:56:43.122Z,21.20
2023-07-24T14:00:44.883Z,21.00
2023-07-24T14:04:46.597Z,20.90
2023-07-24T14:08:48.297Z,20.60
2023-07-24T14:12:49.985Z,20.60
2023-07-24T14:16:51.912Z,20.20
2023-07-24T14:20:56.210Z,20.00
2023-07-24T14:24:57.996Z,19.80
2023-07-24T14:28:59.725Z,19.80
2023-07-24T14:33:01.510Z,19.80
2023-07-24T14:37:03.359Z,19.60
2023-07-24T14:41:05.033Z,19.40
2023-07-24T14:45:07.619Z,19.30
2023-07-24T14:49:09.328Z,19.20
2023-07-24T14:53:11.015Z,19.50
2023-07-24T14:57:23.598Z,20.00
2023-07-24T15:01:30.125Z,20.20
2023-07-24T15:05:33.606Z,20.20
2023-07-24T15:09:35.311Z,20.30
2023-07-24T15:13:37.056Z,20.40
2023-07-24T15:17:38.753Z,20.60
2023-07-24T15:21:40.555Z,20.90
2023-07-24T15:25:42.356Z,20.70
2023-07-24T15:29:44.076Z,20.50
2023-07-24T15:33:45.770Z,20.00
2023-07-24T15:37:47.959Z,20.10
2023-07-24T15:41:49.623Z,20.20
2023-07-24T15:45:51.861Z,20.00
2023-07-24T15:49:53.521Z,19.70
2023-07-24T15:53:55.270Z,19.70
2023-07-24T15:57:57.396Z,19.60
2023-07-24T16:01:59.857Z,19.50
2023-07-24T16:06:01.541Z,19.50
2023-07-24T16:10:03.431Z,19.20
2023-07-24T16:14:05.113Z,19.00
2023-07-24T16:18:07.110Z,18.70
2023-07-24T16:22:08.902Z,18.60
2023-07-24T16:26:10.574Z,18.60
2023-07-24T16:30:12.551Z,18.50
2023-07-24T16:34:15.097Z,18.50
2023-07-24T16:38:17.011Z,18.40
2023-07-24T16:42:19.002Z,18.30
2023-07-24T16:50:25.467Z,17.90
2023-07-24T16:54:27.180Z,17.70
2023-07-24T16:58:29.011Z,17.40
2023-07-24T17:02:32.570Z,17.20
2023-07-24T17:06:34.296Z,16.90
2023-07-24T17:10:46.920Z,16.70
2023-07-24T17:14:48.716Z,16.60
2023-07-24T17:18:55.111Z,16.50
2023-07-24T17:22:56.939Z,16.40
2023-07-24T17:26:58.646Z,16.30
2023-07-24T17:31:00.398Z,16.20
2023-07-24T17:35:02.285Z,16.20
2023-07-24T17:39:04.182Z,16.10
2023-07-24T17:43:05.925Z,16.10
2023-07-24T17:47:07.731Z,16.10
2023-07-24T17:51:09.397Z,16.10
2023-07-24T17:55:11.140Z,16.10
2023-07-24T17:59:12.800Z,16.10
2023-07-24T18:03:14.912Z,16.10
2023-07-24T18:07:16.831Z,16.10
2023-07-24T18:11:18.530Z,16.20
2023-07-24T18:15:20.177Z,16.20
2023-07-24T18:19:21.893Z,16.20
2023-07-24T18:23:23.695Z,16.10
2023-07-24T18:27:25.406Z,16.10
2023-07-24T18:31:30.794Z,16.10
2023-07-24T18:35:32.736Z,16.00
2023-07-24T18:39:34.453Z,16.00
2023-07-24T18:43:36.400Z,15.90
2023-07-24T18:47:38.284Z,15.90
2023-07-24T18:51:39.991Z,15.90
2023-07-24T18:55:42.105Z,16.00
2023-07-24T18:59:43.856Z,15.90
2023-07-24T19:03:45.622Z,15.90
2023-07-24T19:07:47.355Z,15.90
2023-07-24T19:11:49.525Z,15.90
2023-07-24T19:15:51.244Z,15.90
2023-07-24T19:19:52.957Z,15.90
2023-07-24T19:23:54.613Z,15.90
2023-07-24T19:27:56.273Z,15.90
2023-07-24T19:31:58.141Z,15.90
2023-07-24T19:36:01.704Z,15.80
2023-07-24T19:40:05.221Z,15.80
2023-07-24T19:44:07.041Z,15.70
2023-07-24T19:48:08.845Z,15.80
2023-07-24T19:52:10.564Z,15.80
2023-07-24T19:56:12.376Z,15.80
2023-07-24T20:00:14.282Z,15.90
2023-07-24T20:04:16.037Z,15.80
2023-07-24T20:08:17.721Z,15.90
2023-07-24T20:12:19.394Z,15.80
2023-07-24T20:16:21.525Z,15.80
2023-07-24T20:20:23.254Z,15.90
2023-07-24T20:24:24.932Z,15.90
2023-07-24T20:28:27.199Z,15.90
2023-07-24T20:32:30.565Z,16.00
2023-07-24T20:36:32.446Z,16.00
2023-07-24T20:40:34.913Z,16.10
2023-07-24T20:44:36.855Z,16.10
2023-07-24T20:48:38.779Z,16.10
2023-07-24T20:52:40.825Z,16.10
2023-07-24T20:56:42.701Z,16.00
2023-07-24T21:00:44.616Z,16.00
2023-07-24T21:04:46.371Z,15.90
2023-07-24T21:08:48.175Z,15.90
2023-07-24T21:12:51.382Z,15.80
2023-07-24T21:16:53.259Z,15.80
2023-07-24T21:20:55.010Z,15.80
2023-07-24T21:24:56.960Z,15.70
2023-07-24T21:28:59.545Z,15.70
2023-07-24T21:33:01.325Z,15.80
2023-07-24T21:37:03.443Z,15.70
2023-07-24T21:41:05.244Z,15.60
2023-07-24T21:45:08.063Z,15.60
2023-07-24T21:49:09.705Z,15.60
2023-07-24T21:53:11.369Z,15.50
2023-07-24T21:57:13.896Z,15.50
2023-07-24T22:01:17.698Z,15.50
2023-07-24T22:05:19.454Z,15.50
2023-07-24T22:09:21.102Z,15.40
2023-07-24T22:13:22.820Z,15.50
2023-07-24T22:17:27.229Z,15.40
2023-07-24T22:21:29.405Z,15.40
2023-07-24T22:25:31.401Z,15.30
2023-07-24T22:29:33.106Z,15.20
2023-07-24T22:33:35.547Z,15.20
2023-07-24T22:37:37.195Z,15.20
2023-07-24T22:41:38.949Z,15.20
2023-07-24T22:45:40.628Z,15.30
2023-07-24T22:49:42.270Z,15.30
2023-07-24T22:53:44.041Z,15.20
2023-07-24T22:57:45.745Z,15.10
2023-07-24T23:01:48.102Z,15.30
2023-07-24T23:05:50.449Z,15.20
2023-07-24T23:09:52.280Z,15.20
2023-07-24T23:13:53.979Z,15.10
2023-07-24T23:17:55.684Z,15.10
2023-07-24T23:21:57.455Z,15.00
2023-07-24T23:26:03.513Z,15.10
2023-07-24T23:30:05.942Z,15.10
2023-07-24T23:34:07.604Z,15.00
2023-07-24T23:38:09.286Z,15.00
2023-07-24T23:42:10.995Z,15.10
2023-07-24T23:46:14.617Z,15.10
2023-07-24T23:50:16.458Z,15.00
2023-07-24T23:54:18.134Z,15.00
2023-07-24T23:58:19.847Z,15.00
